ジュノー の空港の天気 - METARとTAF

ジュノー国際空港 ( PAJN / JNU ) - アメリカ アラスカ州ジュノー
飛行場実況気象(Metar)
観測時間10/22 03:53 AKDT (10/22 11:53 UTC)
風向・風速東 3m/s
視程10km以上
天気現象
なし
気温-2.2℃
湿度55%
気圧1033.9hPa
METARPAJN 221153Z 09005KT 10SM CLR M02/M10 A3053 RMK AO2 SLP339 T10221100 10006 21033 58006
過去の天気等 Google飛行場航空写真 Wunderground天気予報

過去48時間のMETAR

飛行場予報(TAF)
発表時間: 10/22 03:20 AKDT (10/22 11:20 UTC)
予報対象時間: 22日4時 AKDT ~ 23日4時 AKDT
風向・風速東北東 2m/s
視程10km以上
少しの雲 雲底高度 1220m
少しの雲 雲底高度 6100m
22日11時 AKDT から
風向・風速東南東 5m/s 瞬間風速 9m/s
視程10km以上
なし
22日19時 AKDT から
風向・風速東 4m/s
視程10km以上
なし
PAJN 221120Z 2212/2312 07004KT P6SM FEW040 FEW200
FM221900 12010G18KT P6SM SKC
FM230300 10008KT P6SM SKC